Time;durP1;ratioP1;P1;durP2;ratioP2;P2;SDS_P1;SDS_P2;PMS_P1;PMS_P2;Temp;Humidity;BMP_temperature;BMP_pressure;BME280_temperature;BME280_humidity;BME280_pressure;Samples;Min_cycle;Max_cycle;Signal;HPM_P1;HPM_P2
2021/03/15 00:00:43;;;;;;;4.75;2.80;;;;;;;6.96;56.18;100128.22;5051709;28;20065;-65
2021/03/15 00:03:11;;;;;;;3.63;2.75;;;;;;;6.93;56.45;100129.19;5052591;28;20041;-66
2021/03/15 00:05:55;;;;;;;4.82;3.60;;;;;;;7.25;55.68;100124.53;5047486;28;20048;-66
2021/03/15 00:08:21;;;;;;;3.38;3.08;;;;;;;6.93;56.88;100130.94;5045145;28;20146;-66
2021/03/15 00:10:48;;;;;;;4.03;2.72;;;;;;;6.90;56.28;100138.81;5050640;28;20040;-66
2021/03/15 00:13:15;;;;;;;3.42;2.78;;;;;;;6.80;57.54;100141.72;5053782;28;20376;-66
2021/03/15 00:15:43;;;;;;;5.90;3.20;;;;;;;6.67;57.56;100143.06;5055905;28;20095;-66
2021/03/15 00:18:10;;;;;;;4.03;2.83;;;;;;;6.73;57.07;100132.50;5055747;28;20045;-66
2021/03/15 00:20:37;;;;;;;4.57;3.10;;;;;;;6.75;57.59;100135.88;5055751;28;20041;-66
2021/03/15 00:23:04;;;;;;;7.95;3.05;;;;;;;6.65;57.33;100137.09;5055822;28;20053;-67
2021/03/15 00:25:31;;;;;;;6.03;3.85;;;;;;;6.54;58.00;100136.63;5055712;28;20083;-67
2021/03/15 00:27:58;;;;;;;3.88;2.92;;;;;;;6.55;57.16;100135.72;5055012;28;20412;-67
2021/03/15 00:30:25;;;;;;;5.20;2.53;;;;;;;6.63;56.43;100141.50;5055908;28;20041;-66
2021/03/15 00:32:52;;;;;;;7.30;2.55;;;;;;;6.84;55.24;100145.06;5055243;28;20158;-66
2021/03/15 00:35:19;;;;;;;4.93;2.63;;;;;;;6.90;54.50;100139.66;5056019;28;20041;-67
2021/03/15 00:37:47;;;;;;;4.10;2.45;;;;;;;6.96;54.81;100144.59;5055365;28;20096;-67
2021/03/15 00:40:17;;;;;;;3.35;2.72;;;;;;;7.01;54.89;100136.66;5055445;28;20454;-68
2021/03/15 00:42:45;;;;;;;5.30;2.80;;;;;;;6.97;55.31;100132.50;5055684;28;20148;-66
2021/03/15 00:45:13;;;;;;;7.70;2.92;;;;;;;6.98;55.14;100132.47;5054955;28;20041;-68
2021/03/15 00:47:40;;;;;;;5.57;2.97;;;;;;;6.98;55.31;100131.63;5055301;28;20053;-71
2021/03/15 00:50:41;;;;;;;4.70;3.28;;;;;;;7.00;55.81;100140.16;5054265;28;20136;-69
2021/03/15 00:53:12;;;;;;;3.90;3.15;;;;;;;6.94;55.76;100136.06;5024090;28;20462;-70
2021/03/15 00:55:39;;;;;;;6.40;3.58;;;;;;;6.90;56.44;100136.22;5055245;28;20069;-69
2021/03/15 00:58:06;;;;;;;5.40;3.30;;;;;;;7.12;55.61;100137.09;5054362;28;20457;-69
2021/03/15 01:00:38;;;;;;;4.65;2.88;;;;;;;7.13;55.67;100131.00;5053733;28;20037;-70
2021/03/15 01:03:31;;;;;;;6.80;3.67;;;;;;;6.92;56.11;100134.41;5027129;28;20053;-69
2021/03/15 01:06:00;;;;;;;3.88;3.53;;;;;;;6.82;56.01;100124.41;5049355;28;20045;-69
2021/03/15 01:08:39;;;;;;;4.57;3.80;;;;;;;6.67;56.48;100132.72;5054919;28;20106;-70
2021/03/15 01:11:13;;;;;;;3.50;3.17;;;;;;;6.76;55.98;100126.34;5052823;28;20044;-69
2021/03/15 01:13:44;;;;;;;6.90;4.13;;;;;;;6.67;55.79;100132.72;5053952;28;20392;-70
2021/03/15 01:16:16;;;;;;;7.63;3.90;;;;;;;6.76;55.36;100134.13;5066362;28;20033;-71
2021/03/15 01:18:43;;;;;;;5.80;3.15;;;;;;;6.56;56.29;100127.06;5054073;28;20132;-69
2021/03/15 01:21:12;;;;;;;5.18;3.45;;;;;;;6.58;56.03;100127.84;5054419;28;20067;-69
2021/03/15 01:23:39;;;;;;;10.45;3.28;;;;;;;6.49;56.53;100123.84;5054848;28;20072;-69
2021/03/15 01:26:06;;;;;;;5.82;3.00;;;;;;;6.64;55.25;100129.38;5054351;28;20045;-70
2021/03/15 01:28:33;;;;;;;4.38;2.97;;;;;;;6.69;55.16;100120.53;5054645;28;20091;-69
2021/03/15 01:31:00;;;;;;;6.07;2.75;;;;;;;6.54;55.99;100115.91;5054883;28;20116;-69
2021/03/15 01:33:27;;;;;;;4.47;3.03;;;;;;;6.39;56.89;100119.03;5053793;28;20581;-69
2021/03/15 01:35:53;;;;;;;2.42;2.22;;;;;;;6.57;55.52;100115.81;5043367;28;20123;-69
2021/03/15 01:38:20;;;;;;;4.38;3.17;;;;;;;6.61;54.91;100127.75;5039435;28;20072;-69
2021/03/15 01:40:46;;;;;;;5.25;2.65;;;;;;;6.47;55.36;100115.28;5043438;28;20037;-70
2021/03/15 01:43:13;;;;;;;3.92;3.10;;;;;;;6.56;54.90;100112.38;5042415;28;20395;-69
2021/03/15 01:45:40;;;;;;;5.85;2.80;;;;;;;6.49;55.13;100115.22;5042753;28;20495;-69
2021/03/15 01:48:14;;;;;;;3.60;2.58;;;;;;;6.34;56.33;100105.41;5040983;28;20037;-69
2021/03/15 01:50:46;;;;;;;4.45;2.90;;;;;;;6.28;56.47;100107.34;5042963;28;20095;-69
2021/03/15 01:53:15;;;;;;;6.68;2.83;;;;;;;6.27;56.06;100100.44;5041337;28;20099;-69
2021/03/15 01:55:43;;;;;;;3.53;2.30;;;;;;;6.36;55.97;100101.88;5042394;28;20037;-68
2021/03/15 01:58:09;;;;;;;2.50;2.25;;;;;;;6.32;55.76;100105.47;5045712;28;20571;-69
2021/03/15 02:00:36;;;;;;;3.08;2.25;;;;;;;6.25;55.98;100104.84;5040487;28;20044;-69
2021/03/15 02:03:10;;;;;;;3.15;2.75;;;;;;;6.43;54.42;100103.34;5043534;28;20168;-69
2021/03/15 02:05:39;;;;;;;4.50;2.67;;;;;;;6.23;55.25;100098.00;5041976;28;20041;-69
2021/03/15 02:08:07;;;;;;;3.42;2.92;;;;;;;6.11;55.84;100099.28;5043063;28;20037;-70
2021/03/15 02:10:34;;;;;;;3.35;3.05;;;;;;;6.25;55.42;100089.31;5042406;28;20128;-69
2021/03/15 02:13:16;;;;;;;2.60;2.40;;;;;;;6.18;55.95;100093.00;5044584;28;20073;-70
2021/03/15 02:16:26;;;;;;;5.25;4.10;;;;;;;6.14;55.95;100091.41;5040211;28;20038;-69
2021/03/15 02:19:00;;;;;;;5.25;3.35;;;;;;;6.03;56.73;100088.34;5045243;28;20122;-69
2021/03/15 02:21:59;;;;;;;6.97;3.10;;;;;;;6.03;55.88;100078.00;5043983;28;20563;-70
2021/03/15 02:25:04;;;;;;;5.82;4.53;;;;;;;6.02;56.32;100081.50;5042641;28;20098;-70
2021/03/15 02:28:04;;;;;;;11.90;4.15;;;;;;;6.01;56.78;100075.44;5025829;28;20057;-70
2021/03/15 02:30:54;;;;;;;6.28;3.45;;;;;;;5.96;56.03;100076.50;5039760;28;20859;-69
2021/03/15 02:33:21;;;;;;;3.67;3.25;;;;;;;6.00;55.75;100072.91;5042081;28;20045;-70
2021/03/15 02:35:48;;;;;;;3.97;3.17;;;;;;;6.04;56.45;100085.72;5042134;28;20484;-70
2021/03/15 02:38:16;;;;;;;4.65;3.25;;;;;;;5.95;55.74;100080.84;5044179;28;20558;-70
2021/03/15 02:40:51;;;;;;;5.15;3.97;;;;;;;5.97;56.04;100078.22;5044556;28;20043;-70
2021/03/15 02:43:23;;;;;;;4.00;3.63;;;;;;;5.90;56.29;100068.91;5043704;28;20120;-70
2021/03/15 02:45:55;;;;;;;4.93;3.92;;;;;;;5.86;55.84;100069.91;5043553;28;20069;-70
2021/03/15 02:48:25;;;;;;;5.85;3.25;;;;;;;5.88;55.34;100065.53;5039636;28;20045;-71
2021/03/15 02:50:53;;;;;;;8.32;3.83;;;;;;;5.87;55.55;100062.13;5039555;28;20102;-70
2021/03/15 02:53:21;;;;;;;4.22;3.47;;;;;;;5.92;55.70;100069.75;5042088;28;20424;-70
2021/03/15 02:55:49;;;;;;;3.40;3.10;;;;;;;5.87;55.56;100069.03;5041297;28;20040;-69
2021/03/15 02:58:19;;;;;;;10.07;4.80;;;;;;;5.87;55.55;100071.63;5039415;28;20037;-69
2021/03/15 03:00:47;;;;;;;4.95;3.28;;;;;;;5.76;56.35;100069.41;5041089;28;20044;-69
2021/03/15 03:03:18;;;;;;;7.28;3.13;;;;;;;5.73;56.59;100066.91;5044395;28;20045;-69
2021/03/15 03:05:46;;;;;;;5.95;3.72;;;;;;;5.67;56.22;100067.94;5039149;28;20069;-69
2021/03/15 03:08:17;;;;;;;4.90;3.20;;;;;;;5.86;55.77;100068.19;5038802;28;20087;-69
2021/03/15 03:10:46;;;;;;;3.92;2.63;;;;;;;6.03;54.81;100070.25;5038485;28;20061;-69
2021/03/15 03:13:16;;;;;;;3.75;2.63;;;;;;;6.01;54.02;100070.28;5038927;28;20130;-69
2021/03/15 03:15:42;;;;;;;3.53;2.88;;;;;;;6.16;53.25;100070.66;5040584;28;22491;-70
2021/03/15 03:18:13;;;;;;;5.15;2.63;;;;;;;6.09;52.30;100072.63;5040877;28;20040;-70
2021/03/15 03:20:43;;;;;;;2.83;2.38;;;;;;;6.19;51.51;100075.75;5044928;28;20045;-69
2021/03/15 03:23:10;;;;;;;3.55;2.25;;;;;;;6.19;50.87;100076.56;5040870;28;21232;-69
2021/03/15 03:25:37;;;;;;;2.60;1.95;;;;;;;6.20;51.34;100077.41;5038206;28;20087;-69
2021/03/15 03:28:05;;;;;;;4.20;3.65;;;;;;;6.08;51.33;100070.09;5043560;28;20517;-69
2021/03/15 03:30:37;;;;;;;3.42;2.40;;;;;;;6.18;50.40;100064.53;5043184;28;20053;-69
2021/03/15 03:33:07;;;;;;;4.65;2.55;;;;;;;6.35;50.09;100063.94;5042135;28;20064;-69
2021/03/15 03:35:34;;;;;;;2.50;2.00;;;;;;;6.36;49.79;100064.78;5040256;28;20037;-68
2021/03/15 03:38:02;;;;;;;2.25;2.05;;;;;;;6.06;50.38;100070.13;5041892;28;20128;-68
2021/03/15 03:40:29;;;;;;;4.60;1.92;;;;;;;6.08;50.30;100062.31;5038774;28;20585;-68
2021/03/15 03:42:56;;;;;;;4.68;1.80;;;;;;;6.30;48.89;100064.09;5038798;28;20041;-68
2021/03/15 03:45:23;;;;;;;1.80;1.70;;;;;;;6.27;48.83;100069.38;5038862;28;20450;-68
2021/03/15 03:47:50;;;;;;;1.77;1.58;;;;;;;6.05;49.13;100060.66;5040330;28;20128;-69
2021/03/15 03:50:22;;;;;;;1.95;1.80;;;;;;;6.21;48.68;100069.59;5039220;28;20496;-68
2021/03/15 03:53:01;;;;;;;2.20;1.80;;;;;;;6.13;47.72;100069.03;5042675;28;20084;-69
2021/03/15 03:55:38;;;;;;;4.65;2.47;;;;;;;6.14;48.06;100065.53;5039784;28;20514;-69
2021/03/15 03:58:08;;;;;;;3.17;1.50;;;;;;;6.16;46.84;100062.88;5038427;28;20041;-69
2021/03/15 04:00:38;;;;;;;2.72;2.53;;;;;;;6.22;46.54;100062.66;5039835;28;20124;-68
2021/03/15 04:03:14;;;;;;;1.95;1.75;;;;;;;6.15;46.09;100067.22;5036198;28;20128;-68
2021/03/15 04:05:48;;;;;;;1.70;1.60;;;;;;;6.16;47.66;100063.72;5041705;28;20037;-68
2021/03/15 04:08:20;;;;;;;2.30;1.60;;;;;;;6.20;47.60;100069.66;5038174;28;20040;-68
2021/03/15 04:10:49;;;;;;;2.38;2.28;;;;;;;6.09;47.81;100069.19;5043265;28;20052;-68
2021/03/15 04:13:20;;;;;;;2.00;1.90;;;;;;;5.98;49.21;100065.22;5045267;28;20037;-68
2021/03/15 04:15:47;;;;;;;2.30;1.88;;;;;;;5.93;49.39;100068.88;5042194;28;20159;-68
2021/03/15 04:18:18;;;;;;;3.70;2.20;;;;;;;5.95;49.27;100064.47;5044668;28;20424;-68
2021/03/15 04:20:48;;;;;;;5.15;2.63;;;;;;;5.82;50.04;100068.34;5039980;28;20056;-68
2021/03/15 04:23:18;;;;;;;2.88;2.40;;;;;;;5.77;50.36;100066.75;5038686;28;20127;-68
2021/03/15 04:25:47;;;;;;;3.55;2.63;;;;;;;5.62;50.67;100059.50;5040024;28;20037;-68
2021/03/15 04:28:16;;;;;;;7.38;3.67;;;;;;;5.68;50.95;100059.28;5040516;28;20041;-70
2021/03/15 04:30:43;;;;;;;6.97;2.88;;;;;;;5.64;50.87;100060.28;5038764;28;20448;-70
2021/03/15 04:33:11;;;;;;;8.77;2.83;;;;;;;5.61;51.16;100060.38;5040409;28;20448;-70
2021/03/15 04:35:41;;;;;;;2.58;2.30;;;;;;;5.59;50.87;100067.34;5038620;28;20068;-70
2021/03/15 04:38:10;;;;;;;4.60;2.30;;;;;;;5.59;50.53;100067.34;5042413;28;20038;-69
2021/03/15 04:40:38;;;;;;;3.20;2.08;;;;;;;5.56;50.89;100067.44;5044950;28;20140;-68
2021/03/15 04:43:08;;;;;;;2.38;2.10;;;;;;;5.78;50.56;100065.84;5045884;28;20049;-69
2021/03/15 04:45:43;;;;;;;2.00;1.70;;;;;;;5.73;50.44;100059.97;5051615;28;20051;-68
2021/03/15 04:48:16;;;;;;;3.83;2.28;;;;;;;5.67;50.83;100064.50;5046094;28;20044;-68
2021/03/15 04:50:44;;;;;;;4.07;2.17;;;;;;;5.81;50.05;100064.91;5051634;28;20041;-69
2021/03/15 04:53:13;;;;;;;1.80;1.70;;;;;;;5.76;50.21;100070.25;5051487;28;20037;-68
2021/03/15 04:55:43;;;;;;;2.40;1.95;;;;;;;5.64;49.89;100073.19;5051672;28;20037;-69
2021/03/15 04:58:11;;;;;;;1.70;1.60;;;;;;;5.66;50.73;100062.84;5051969;28;20041;-69
2021/03/15 05:00:41;;;;;;;1.90;1.80;;;;;;;5.62;50.84;100066.41;5053575;28;20045;-69
2021/03/15 05:03:11;;;;;;;2.40;2.20;;;;;;;5.59;51.03;100063.91;5055328;28;20060;-69
2021/03/15 05:05:39;;;;;;;4.93;1.85;;;;;;;5.74;50.23;100063.41;5054863;28;20048;-70
2021/03/15 05:08:08;;;;;;;2.72;2.53;;;;;;;5.67;50.00;100065.34;5055247;28;20069;-70
2021/03/15 05:10:35;;;;;;;3.65;1.70;;;;;;;5.75;50.41;100065.09;5053569;28;20091;-70
2021/03/15 05:13:04;;;;;;;2.10;1.80;;;;;;;5.74;50.47;100061.66;5055077;28;20053;-69
2021/03/15 05:15:32;;;;;;;4.60;2.25;;;;;;;5.52;50.75;100058.09;5054783;28;20044;-69
2021/03/15 05:18:00;;;;;;;2.08;1.88;;;;;;;5.50;50.16;100062.47;5054985;28;20124;-69
2021/03/15 05:20:27;;;;;;;32.28;3.28;;;;;;;5.53;50.45;100052.03;5054925;28;20055;-68
2021/03/15 05:22:55;;;;;;;2.60;2.05;;;;;;;5.59;50.19;100051.81;5054943;28;20111;-69
2021/03/15 05:25:22;;;;;;;2.47;2.20;;;;;;;5.61;49.97;100060.38;5054973;28;20433;-69
2021/03/15 05:27:50;;;;;;;3.50;2.58;;;;;;;5.49;51.14;100060.78;5046988;28;20069;-69
2021/03/15 05:30:19;;;;;;;2.03;1.92;;;;;;;5.52;50.58;100065.84;5042620;28;20154;-69
2021/03/15 05:32:55;;;;;;;4.80;2.65;;;;;;;5.57;50.03;100069.13;5040614;28;20515;-69
2021/03/15 05:35:24;;;;;;;2.40;2.20;;;;;;;5.82;49.02;100076.94;5042623;28;20392;-69
2021/03/15 05:37:50;;;;;;;8.55;2.80;;;;;;;5.91;48.52;100080.94;5052517;28;20039;-70
2021/03/15 05:40:21;;;;;;;3.88;2.80;;;;;;;5.79;48.19;100072.69;5055839;28;20037;-69
2021/03/15 05:43:10;;;;;;;9.30;2.72;;;;;;;5.93;47.25;100074.03;5055044;28;20404;-69
2021/03/15 05:46:08;;;;;;;3.03;2.03;;;;;;;5.86;47.54;100080.25;5055569;28;20095;-69
2021/03/15 05:48:53;;;;;;;2.55;2.13;;;;;;;5.74;48.78;100072.00;5055264;28;20052;-69
2021/03/15 05:51:57;;;;;;;5.93;2.45;;;;;;;5.81;48.66;100067.50;5054745;28;20037;-70
2021/03/15 05:54:45;;;;;;;4.22;2.70;;;;;;;5.73;49.32;100065.16;5054629;28;20044;-69
2021/03/15 05:57:23;;;;;;;3.95;3.45;;;;;;;5.83;49.42;100068.28;5054918;28;20123;-69
2021/03/15 06:00:10;;;;;;;4.32;2.97;;;;;;;5.93;49.39;100071.44;5054590;28;20432;-69
2021/03/15 06:02:59;;;;;;;3.33;3.00;;;;;;;6.01;49.54;100067.69;5046146;28;20045;-69
2021/03/15 06:05:29;;;;;;;3.30;2.85;;;;;;;6.03;49.28;100058.16;5051989;28;20037;-69
2021/03/15 06:08:07;;;;;;;5.47;3.05;;;;;;;5.83;49.47;100060.53;5050595;28;20041;-69
2021/03/15 06:10:35;;;;;;;5.68;3.60;;;;;;;6.02;49.98;100055.63;5053088;28;20055;-71
2021/03/15 06:13:13;;;;;;;4.13;3.15;;;;;;;6.84;48.65;100046.59;5053504;28;20098;-70
2021/03/15 06:15:42;;;;;;;6.47;2.42;;;;;;;7.41;46.63;100036.63;5054173;28;20512;-70
2021/03/15 06:18:10;;;;;;;4.60;3.30;;;;;;;8.00;44.35;100036.75;5052476;28;20041;-68
2021/03/15 06:20:38;;;;;;;10.82;3.33;;;;;;;8.00;43.19;100038.50;5052603;28;20495;-67
2021/03/15 06:23:06;;;;;;;9.82;4.47;;;;;;;8.89;41.83;100032.78;5052935;28;20041;-70
2021/03/15 06:25:34;;;;;;;10.65;4.38;;;;;;;9.04;40.79;100036.44;5052687;28;20143;-69
2021/03/15 06:28:01;;;;;;;6.53;4.10;;;;;;;9.10;40.76;100031.78;5052810;28;20048;-66
2021/03/15 06:30:28;;;;;;;7.50;2.47;;;;;;;9.32;40.96;100034.22;5053402;28;20083;-65
2021/03/15 06:32:59;;;;;;;4.30;2.47;;;;;;;9.82;39.83;100040.47;5053052;28;20045;-64
2021/03/15 06:35:30;;;;;;;3.08;2.45;;;;;;;9.91;39.78;100038.25;5053433;28;20403;-74
2021/03/15 06:38:00;;;;;;;6.25;2.80;;;;;;;10.45;38.55;100038.97;5036100;28;20041;-74
2021/03/15 06:40:27;;;;;;;9.00;2.95;;;;;;;10.53;38.90;100033.31;5052134;28;20049;-75
2021/03/15 06:42:54;;;;;;;10.82;4.28;;;;;;;11.03;37.42;100034.97;5039400;28;20045;-71
2021/03/15 06:45:21;;;;;;;7.47;2.88;;;;;;;11.11;37.22;100030.16;5042463;28;20948;-69
2021/03/15 06:47:49;;;;;;;7.80;3.17;;;;;;;11.39;36.34;100029.44;5050455;28;20072;-73
2021/03/15 06:50:18;;;;;;;9.73;3.30;;;;;;;11.71;36.09;100024.16;5052306;28;20060;-70
2021/03/15 06:52:51;;;;;;;4.93;2.92;;;;;;;12.07;35.67;100029.84;5050309;28;20069;-70
2021/03/15 06:55:19;;;;;;;19.42;2.80;;;;;;;11.85;36.06;100034.69;5035466;28;20053;-68
2021/03/15 06:57:45;;;;;;;3.42;2.65;;;;;;;12.16;36.07;100046.78;5045307;28;20048;-69
2021/03/15 07:00:13;;;;;;;2.83;2.50;;;;;;;11.92;36.48;100045.59;5052373;28;20041;-69
2021/03/15 07:02:40;;;;;;;9.15;2.17;;;;;;;13.13;35.64;100046.03;5046521;28;20438;-67
2021/03/15 07:05:12;;;;;;;7.13;2.45;;;;;;;13.45;34.23;100044.84;5051472;28;20124;-68
2021/03/15 07:07:49;;;;;;;7.20;2.60;;;;;;;13.79;33.77;100053.09;5052334;28;20119;-69
2021/03/15 07:10:25;;;;;;;7.03;2.88;;;;;;;13.45;33.89;100044.84;5046650;28;20044;-66
2021/03/15 07:13:19;;;;;;;3.97;2.72;;;;;;;14.37;32.63;100046.53;5050751;28;20037;-68
2021/03/15 07:15:48;;;;;;;5.43;3.25;;;;;;;14.78;31.62;100051.56;5049817;28;20036;-67
2021/03/15 07:18:18;;;;;;;11.80;3.35;;;;;;;14.90;31.85;100042.81;5046993;28;20945;-67
2021/03/15 07:20:59;;;;;;;8.57;3.65;;;;;;;15.32;31.72;100047.72;5051059;28;20044;-68
2021/03/15 07:23:48;;;;;;;18.65;2.85;;;;;;;16.04;31.21;100052.94;5043970;28;20128;-66
2021/03/15 07:26:17;;;;;;;14.20;3.15;;;;;;;16.76;29.58;100050.84;5051760;28;20510;-64
2021/03/15 07:28:45;;;;;;;8.00;3.17;;;;;;;16.63;28.75;100045.69;5051471;28;20045;-65
2021/03/15 07:31:27;;;;;;;5.40;3.35;;;;;;;16.76;29.34;100046.41;5052434;28;20120;-62
2021/03/15 07:33:54;;;;;;;10.50;3.05;;;;;;;17.63;28.88;100048.22;5051177;28;20049;-61
2021/03/15 07:36:26;;;;;;;7.32;2.95;;;;;;;16.96;30.46;100050.13;5051971;28;20235;-63
2021/03/15 07:38:57;;;;;;;12.75;3.45;;;;;;;17.41;30.00;100059.69;5046270;28;20056;-61
2021/03/15 07:41:45;;;;;;;5.18;3.15;;;;;;;17.23;28.57;100048.84;5050596;28;20048;-62
2021/03/15 07:44:21;;;;;;;6.78;2.75;;;;;;;17.63;27.90;100057.00;5051422;28;20037;-61
2021/03/15 07:46:50;;;;;;;5.53;2.40;;;;;;;18.16;27.72;100056.97;5050552;28;20048;-61
2021/03/15 07:49:38;;;;;;;5.55;3.20;;;;;;;16.61;29.15;100058.09;5051829;28;20045;-62
2021/03/15 07:52:06;;;;;;;4.88;3.35;;;;;;;16.54;30.37;100059.56;5052234;28;20495;-64
2021/03/15 07:54:46;;;;;;;7.97;2.53;;;;;;;16.61;31.06;100065.16;5051921;28;20061;-62
2021/03/15 07:57:15;;;;;;;4.80;2.63;;;;;;;17.07;31.00;100067.69;5050835;28;20120;-62
2021/03/15 07:59:42;;;;;;;7.75;2.35;;;;;;;16.64;31.83;100071.03;5051710;28;20037;-61
2021/03/15 08:02:15;;;;;;;8.90;2.65;;;;;;;17.55;30.52;100065.50;5051429;28;20440;-62
2021/03/15 08:04:42;;;;;;;4.78;2.38;;;;;;;18.39;27.73;100068.22;5051296;28;20083;-64
2021/03/15 08:07:11;;;;;;;5.93;2.47;;;;;;;16.96;28.78;100065.91;5051364;28;20132;-64
2021/03/15 08:09:37;;;;;;;5.55;2.80;;;;;;;17.75;28.55;100058.66;5052323;28;20423;-67
2021/03/15 08:12:09;;;;;;;2.80;2.42;;;;;;;18.55;27.96;100063.28;5049762;28;20464;-63
2021/03/15 08:14:40;;;;;;;6.75;2.80;;;;;;;18.43;27.26;100060.84;5050638;28;20045;-64
2021/03/15 08:17:09;;;;;;;7.20;2.78;;;;;;;18.99;26.43;100050.69;5051234;28;20041;-63
2021/03/15 08:19:37;;;;;;;2.97;2.35;;;;;;;19.60;25.32;100049.66;5051213;28;20430;-66
2021/03/15 08:22:05;;;;;;;7.13;2.35;;;;;;;19.27;25.24;100053.53;5050982;28;20102;-64
2021/03/15 08:24:35;;;;;;;9.23;2.60;;;;;;;20.19;24.77;100046.00;5048486;28;20079;-64
2021/03/15 08:27:03;;;;;;;6.97;2.05;;;;;;;19.26;25.00;100038.63;5050175;28;20065;-63
2021/03/15 08:29:40;;;;;;;14.77;3.65;;;;;;;19.70;24.99;100032.00;5050930;28;20605;-66
2021/03/15 08:32:09;;;;;;;9.57;2.83;;;;;;;20.82;23.58;100027.66;5049392;28;20491;-66
2021/03/15 08:34:39;;;;;;;6.63;2.40;;;;;;;21.48;22.76;100028.38;5052858;28;20098;-65
2021/03/15 08:37:06;;;;;;;5.13;2.42;;;;;;;21.12;23.15;100017.72;5054157;28;20545;-65
2021/03/15 08:39:38;;;;;;;4.75;2.40;;;;;;;19.86;24.55;100023.50;5055114;28;20053;-64
2021/03/15 08:42:14;;;;;;;10.15;2.15;;;;;;;19.46;25.28;100023.63;5052160;28;20041;-64
2021/03/15 08:45:00;;;;;;;11.23;2.92;;;;;;;18.83;26.47;100024.78;5052516;28;20041;-68
2021/03/15 08:47:49;;;;;;;9.90;2.55;;;;;;;17.98;27.99;100037.44;5052317;28;20033;-66
2021/03/15 08:50:34;;;;;;;9.20;2.90;;;;;;;17.18;29.64;100040.50;5053098;28;20041;-67
2021/03/15 08:53:01;;;;;;;4.75;2.20;;;;;;;17.07;30.71;100036.09;5051766;28;20064;-69
2021/03/15 08:55:47;;;;;;;2.10;1.75;;;;;;;16.64;29.67;100039.47;5050891;28;20103;-69
2021/03/15 08:58:43;;;;;;;2.45;1.73;;;;;;;16.63;30.34;100031.69;5053508;28;20133;-70
2021/03/15 09:01:16;;;;;;;13.82;3.80;;;;;;;15.84;32.44;100026.34;5043388;28;20041;-71
2021/03/15 09:03:54;;;;;;;7.10;2.35;;;;;;;15.91;32.03;100029.34;5053455;28;20091;-69
2021/03/15 09:06:30;;;;;;;7.53;2.17;;;;;;;15.66;31.46;100022.47;5052190;28;20431;-72
2021/03/15 09:09:00;;;;;;;4.25;1.80;;;;;;;16.22;30.09;100017.31;5050372;28;20049;-69
2021/03/15 09:11:41;;;;;;;4.22;1.95;;;;;;;15.78;30.50;100018.09;5051987;28;20071;-71
2021/03/15 09:14:26;;;;;;;9.02;2.20;;;;;;;15.84;30.84;100007.09;5048663;28;20086;-71
2021/03/15 09:16:59;;;;;;;7.03;2.47;;;;;;;15.54;30.96;100003.16;5051549;28;20052;-71
2021/03/15 09:19:34;;;;;;;5.53;2.28;;;;;;;15.43;32.12;100005.75;5052112;28;20048;-69
2021/03/15 09:22:38;;;;;;;6.15;2.40;;;;;;;15.69;31.43;99988.91;5050515;28;20045;-69
2021/03/15 09:25:06;;;;;;;3.35;1.60;;;;;;;15.87;31.08;99985.84;5050569;28;20048;-72
2021/03/15 09:27:34;;;;;;;3.08;1.92;;;;;;;15.39;32.42;99981.53;5053238;28;20487;-67
2021/03/15 09:30:04;;;;;;;4.82;1.90;;;;;;;15.67;32.63;99969.81;5050397;28;20055;-69
2021/03/15 09:32:37;;;;;;;3.75;2.10;;;;;;;15.66;31.75;99957.63;5053066;28;20045;-68
2021/03/15 09:35:29;;;;;;;2.38;1.83;;;;;;;15.65;32.92;99958.56;5051781;28;20053;-68
2021/03/15 09:38:14;;;;;;;6.18;1.70;;;;;;;15.54;33.34;99957.66;5051704;28;20128;-69
2021/03/15 09:40:50;;;;;;;3.55;1.40;;;;;;;15.34;33.09;99953.88;5049118;28;20474;-73
2021/03/15 09:43:32;;;;;;;5.35;1.90;;;;;;;15.24;33.29;99955.56;5050928;28;20140;-74
2021/03/15 09:46:07;;;;;;;2.80;2.05;;;;;;;15.54;32.86;99952.41;5041092;28;20403;-74
2021/03/15 09:48:37;;;;;;;5.03;2.30;;;;;;;15.44;33.75;99952.25;5058045;28;20042;-75
2021/03/15 09:51:08;;;;;;;3.83;1.90;;;;;;;15.06;32.57;99948.06;5040673;28;20087;-71
2021/03/15 09:53:51;;;;;;;3.13;1.67;;;;;;;14.74;32.78;99949.56;5046731;28;20092;-75
2021/03/15 09:56:24;;;;;;;3.67;1.60;;;;;;;15.24;32.88;99948.50;5063184;28;20443;-74
2021/03/15 09:58:59;;;;;;;6.43;1.77;;;;;;;15.30;33.66;99941.97;5042639;28;20045;-71
2021/03/15 10:01:28;;;;;;;2.55;1.88;;;;;;;14.99;34.59;99951.25;5044139;28;20053;-73
2021/03/15 10:03:55;;;;;;;3.33;1.52;;;;;;;14.73;32.22;99953.13;5046314;28;20427;-72
2021/03/15 10:06:44;;;;;;;3.15;0.85;;;;;;;15.16;28.75;99949.06;5008973;28;20057;-73
2021/03/15 10:09:30;;;;;;;1.65;0.63;;;;;;;15.43;27.02;99945.34;5051513;28;20119;-71
2021/03/15 10:12:20;;;;;;;2.20;1.27;;;;;;;15.43;26.79;99940.91;5050707;28;20103;-72
2021/03/15 10:15:13;;;;;;;2.78;1.02;;;;;;;15.49;27.77;99947.50;5040801;28;20052;-74
2021/03/15 10:17:48;;;;;;;1.35;0.90;;;;;;;15.59;25.47;99937.97;5056275;28;20068;-74
2021/03/15 10:20:47;;;;;;;1.75;0.80;;;;;;;15.75;24.86;99928.97;5040463;28;20042;-73
2021/03/15 10:23:21;;;;;;;2.03;0.90;;;;;;;15.83;25.08;99932.69;5046152;28;20597;-69
2021/03/15 10:25:59;;;;;;;1.42;0.75;;;;;;;15.79;25.50;99925.16;5048533;28;20048;-70
2021/03/15 10:28:51;;;;;;;1.33;0.60;;;;;;;15.68;24.96;99921.56;5042943;28;20384;-70
2021/03/15 10:31:25;;;;;;;1.02;0.70;;;;;;;15.84;24.91;99907.25;5044515;28;20034;-72
2021/03/15 10:33:54;;;;;;;1.35;1.00;;;;;;;15.85;25.43;99914.16;5044111;28;20159;-71
2021/03/15 10:36:27;;;;;;;1.15;0.90;;;;;;;15.96;25.03;99915.00;5043034;28;20044;-73
2021/03/15 10:39:14;;;;;;;1.08;0.88;;;;;;;15.71;24.84;99907.31;5048611;28;20037;-72
2021/03/15 10:41:41;;;;;;;1.17;1.08;;;;;;;15.55;23.37;99909.41;5050040;28;20048;-72
2021/03/15 10:44:23;;;;;;;3.15;1.50;;;;;;;15.60;22.62;99897.59;5046626;28;20053;-73
2021/03/15 10:46:56;;;;;;;1.63;1.20;;;;;;;15.74;22.03;99895.75;5037784;28;20095;-73
2021/03/15 10:49:31;;;;;;;3.38;0.93;;;;;;;15.76;22.94;99899.09;5048812;28;20049;-72
2021/03/15 10:52:33;;;;;;;0.52;0.52;;;;;;;15.95;22.44;99883.59;5041992;28;20048;-74
2021/03/15 10:55:32;;;;;;;0.70;0.70;;;;;;;16.05;21.51;99879.28;5058563;28;20045;-73
2021/03/15 10:58:13;;;;;;;0.50;0.50;;;;;;;15.87;21.66;99880.69;5044619;28;20099;-73
2021/03/15 11:01:09;;;;;;;1.75;0.70;;;;;;;15.90;22.16;99881.31;5028153;28;20052;-72
2021/03/15 11:03:42;;;;;;;0.70;0.70;;;;;;;15.90;21.42;99875.22;5049082;28;20037;-70
2021/03/15 11:06:21;;;;;;;4.50;1.00;;;;;;;15.89;22.70;99863.03;5037443;28;20037;-71
2021/03/15 11:09:01;;;;;;;2.85;0.95;;;;;;;15.89;21.77;99858.63;5039426;28;20059;-72
2021/03/15 11:11:33;;;;;;;0.50;0.50;;;;;;;15.81;21.08;99860.16;5040176;28;20525;-73
2021/03/15 11:14:17;;;;;;;3.60;0.70;;;;;;;15.74;21.79;99854.53;5049701;28;20132;-77
2021/03/15 11:17:23;;;;;;;2.53;0.50;;;;;;;15.88;21.46;99862.19;5036638;28;20127;-71
2021/03/15 11:20:00;;;;;;;4.35;0.70;;;;;;;15.94;22.91;99859.09;5042188;28;20115;-69
2021/03/15 11:22:48;;;;;;;1.05;0.95;;;;;;;15.98;22.41;99857.06;5035679;28;20041;-68
2021/03/15 11:25:17;;;;;;;1.20;0.70;;;;;;;15.96;22.57;99843.19;5038848;28;20073;-71
2021/03/15 11:27:50;;;;;;;4.45;0.68;;;;;;;15.78;22.58;99834.13;5045686;28;20044;-75
2021/03/15 11:30:25;;;;;;;2.60;0.80;;;;;;;15.89;23.48;99831.50;5041755;28;20069;-73
2021/03/15 11:33:09;;;;;;;0.95;0.63;;;;;;;16.00;22.91;99823.59;5038226;28;20416;-70
2021/03/15 11:35:58;;;;;;;0.50;0.50;;;;;;;16.10;22.48;99818.44;5048648;28;20044;-66
2021/03/15 11:38:29;;;;;;;0.80;0.80;;;;;;;16.18;22.76;99814.22;5038321;28;20049;-68
2021/03/15 11:40:59;;;;;;;2.05;0.77;;;;;;;16.18;21.44;99814.22;5046414;28;20037;-74
2021/03/15 11:43:32;;;;;;;1.00;0.60;;;;;;;16.23;21.46;99814.69;5048391;28;20055;-65
2021/03/15 11:46:06;;;;;;;;;;;;;;;16.23;20.82;99814.69;5024031;28;20088;-65
2021/03/15 11:48:33;;;;;;;0.57;0.57;;;;;;;16.20;20.87;99809.69;5038326;28;19927;-64
2021/03/15 11:51:20;;;;;;;1.40;0.77;;;;;;;16.32;21.29;99807.03;5033864;28;20385;-65
2021/03/15 11:54:02;;;;;;;0.88;0.70;;;;;;;16.47;21.46;99800.53;5036087;28;20506;-66
2021/03/15 11:56:29;;;;;;;2.65;0.95;;;;;;;16.48;21.29;99791.69;5036585;28;20077;-64
2021/03/15 11:58:55;;;;;;;0.75;0.75;;;;;;;16.56;20.71;99773.44;5044625;28;20041;-67
2021/03/15 12:01:22;;;;;;;5.65;1.40;;;;;;;16.61;20.52;99771.28;5047969;28;20063;-66